Time;durP1;ratioP1;P1;durP2;ratioP2;P2;SDS_P1;SDS_P2;PMS_P1;PMS_P2;Temp;Humidity;BMP_temperature;BMP_pressure;BME280_temperature;BME280_humidity;BME280_pressure;Samples;Min_cycle;Max_cycle;Signal;HPM_P1;HPM_P2
2023/02/06 07:49:40;;;;;;;27.10;15.37;;;-1.50;99.90;;;;;;5134074;27;20278;-77
2023/02/06 07:53:33;;;;;;;34.73;17.80;;;-1.30;99.90;;;;;;5134743;27;20775;-78
2023/02/06 07:55:59;;;;;;;115.30;60.63;;;-1.10;99.90;;;;;;5133979;28;20456;-78
2023/02/06 07:58:25;;;;;;;99.70;49.30;;;-1.00;99.90;;;;;;5136669;27;20415;-78
2023/02/06 08:00:50;;;;;;;281.43;139.10;;;-0.90;99.90;;;;;;5136418;27;20404;-77
2023/02/06 08:20:17;;;;;;;30.80;18.13;;;-1.20;99.90;;;;;;5132751;27;20281;-78
2023/02/06 08:26:27;;;;;;;20.93;15.13;;;-1.10;99.90;;;;;;5133125;27;20275;-78
2023/02/06 08:31:12;;;;;;;36.50;18.23;;;-1.00;99.90;;;;;;5133423;27;20273;-78
2023/02/06 08:36:17;;;;;;;27.90;19.53;;;-1.00;99.90;;;;;;5133488;27;20281;-78
2023/02/06 08:41:23;;;;;;;25.53;17.20;;;-0.90;99.90;;;;;;5133302;27;20264;-78
2023/02/06 08:45:21;;;;;;;32.57;24.77;;;-0.90;99.90;;;;;;5133481;27;20263;-78
2023/02/06 08:48:58;;;;;;;28.53;18.87;;;-0.90;99.90;;;;;;5133769;27;20268;-78
2023/02/06 08:52:51;;;;;;;27.93;18.97;;;-1.00;99.90;;;;;;5092841;28;20546;-79
2023/02/06 08:55:17;;;;;;;28.80;21.63;;;-0.90;99.90;;;;;;5092609;28;20407;-78
2023/02/06 08:57:42;;;;;;;26.43;18.90;;;-0.90;99.90;;;;;;5090798;28;20191;-78
2023/02/06 09:01:15;;;;;;;23.80;15.60;;;-0.80;99.90;;;;;;5112965;27;20544;-79
2023/02/06 09:05:09;;;;;;;28.27;19.17;;;-0.50;99.90;;;;;;5133762;27;20614;-78
2023/02/06 09:09:09;;;;;;;21.30;15.17;;;-0.80;99.90;;;;;;5133869;27;20279;-78
2023/02/06 09:11:35;;;;;;;21.00;14.63;;;-0.70;99.90;;;;;;5138523;28;20413;-78
2023/02/06 09:14:03;;;;;;;18.57;14.93;;;-0.10;99.90;;;;;;5150981;28;20511;-78
2023/02/06 09:16:31;;;;;;;24.43;15.63;;;0.30;99.90;;;;;;5149490;28;20420;-78
2023/02/06 09:19:00;;;;;;;16.67;13.73;;;0.70;99.90;;;;;;5134293;27;20495;-78
2023/02/06 09:21:27;;;;;;;16.67;13.03;;;0.90;99.90;;;;;;5132222;28;20421;-78
2023/02/06 09:23:57;;;;;;;17.37;12.03;;;1.10;99.90;;;;;;5132649;28;20755;-78
2023/02/06 09:26:25;;;;;;;15.80;12.07;;;1.40;99.90;;;;;;5134866;27;20408;-79
2023/02/06 09:28:52;;;;;;;14.63;11.20;;;1.20;99.90;;;;;;5133650;28;20459;-79
2023/02/06 09:31:18;;;;;;;14.00;11.53;;;1.50;99.90;;;;;;5134462;27;20791;-78
2023/02/06 09:33:43;;;;;;;14.60;11.27;;;2.10;99.90;;;;;;5133233;28;20440;-79
2023/02/06 09:36:12;;;;;;;14.23;12.73;;;2.60;99.90;;;;;;5134466;27;20575;-79
2023/02/06 09:38:41;;;;;;;13.10;10.27;;;3.10;99.90;;;;;;5133964;28;20190;-79
2023/02/06 09:41:30;;;;;;;9.80;8.27;;;3.40;99.90;;;;;;5133709;28;20419;-79
2023/02/06 09:44:10;;;;;;;9.10;8.10;;;3.50;99.90;;;;;;5134673;27;20434;-79
2023/02/06 09:46:49;;;;;;;8.90;7.67;;;3.50;99.90;;;;;;5134776;27;20175;-80
2023/02/06 09:49:38;;;;;;;9.60;7.30;;;3.90;99.90;;;;;;5134691;27;20164;-79
2023/02/06 09:52:22;;;;;;;9.53;7.30;;;3.80;99.90;;;;;;5134420;28;20188;-79
2023/02/06 09:55:30;;;;;;;11.70;8.00;;;3.10;99.90;;;;;;5133085;28;20178;-79
2023/02/06 09:58:33;;;;;;;10.43;8.90;;;2.30;99.90;;;;;;5134589;28;20632;-79
2023/02/06 10:01:36;;;;;;;11.07;8.70;;;1.70;99.90;;;;;;5132683;28;20183;-79
2023/02/06 10:04:36;;;;;;;11.20;9.43;;;1.60;99.90;;;;;;5132258;28;20241;-79
2023/02/06 10:07:26;;;;;;;12.97;9.03;;;1.80;99.90;;;;;;5134110;27;20210;-79
2023/02/06 10:10:22;;;;;;;11.80;9.67;;;1.80;99.90;;;;;;5132224;28;20177;-79
2023/02/06 10:13:16;;;;;;;14.73;10.40;;;1.50;99.90;;;;;;5127703;27;20209;-79
2023/02/06 10:15:46;;;;;;;13.90;9.77;;;1.20;99.90;;;;;;5129656;27;20214;-79
2023/02/06 10:18:41;;;;;;;13.80;10.07;;;1.10;99.90;;;;;;5132039;28;20185;-79
2023/02/06 10:21:16;;;;;;;15.87;10.97;;;1.00;99.90;;;;;;5118494;28;20190;-79
2023/02/06 10:24:12;;;;;;;18.07;11.67;;;1.00;99.90;;;;;;5120050;28;20197;-79
2023/02/06 10:26:39;;;;;;;12.23;10.13;;;0.70;99.90;;;;;;5092526;28;20190;-78
2023/02/06 10:29:08;;;;;;;17.10;11.37;;;0.70;99.90;;;;;;5118951;27;20172;-78
2023/02/06 10:31:49;;;;;;;12.60;10.17;;;0.80;99.90;;;;;;5118373;28;20170;-79
2023/02/06 10:34:33;;;;;;;15.77;9.40;;;0.70;99.90;;;;;;5118251;28;20285;-78
2023/02/06 10:37:19;;;;;;;11.93;8.60;;;0.70;99.90;;;;;;5117894;28;20169;-78
2023/02/06 10:40:10;;;;;;;12.17;8.60;;;0.70;99.90;;;;;;5116369;28;20181;-78
2023/02/06 10:42:43;;;;;;;9.73;8.27;;;0.90;99.90;;;;;;5118212;28;20227;-79
2023/02/06 10:45:26;;;;;;;10.43;8.87;;;1.10;99.90;;;;;;5118462;28;20171;-79
2023/02/06 10:48:01;;;;;;;11.33;8.27;;;1.10;99.90;;;;;;5117483;28;20200;-79
2023/02/06 10:50:33;;;;;;;12.77;8.63;;;1.00;99.90;;;;;;5116111;28;20186;-78
2023/02/06 10:53:04;;;;;;;12.17;9.67;;;1.00;99.90;;;;;;5117520;28;20585;-79
2023/02/06 10:55:55;;;;;;;11.63;8.27;;;0.90;99.90;;;;;;5116965;28;20244;-78
2023/02/06 10:58:31;;;;;;;11.03;7.90;;;0.80;99.90;;;;;;5115663;28;20244;-78
2023/02/06 11:00:59;;;;;;;11.33;8.97;;;0.80;99.90;;;;;;5117259;28;20154;-78
2023/02/06 11:03:30;;;;;;;13.43;8.70;;;1.10;99.90;;;;;;5115583;28;20211;-78
2023/02/06 11:05:57;;;;;;;11.47;7.83;;;1.30;99.90;;;;;;5115510;28;20164;-80
2023/02/06 11:08:44;;;;;;;10.43;8.53;;;1.60;99.90;;;;;;5117161;28;20200;-78
2023/02/06 11:11:23;;;;;;;9.47;7.80;;;1.90;99.90;;;;;;5116993;28;20214;-78
2023/02/06 11:14:00;;;;;;;8.93;7.20;;;2.50;99.90;;;;;;5115736;28;20197;-78
2023/02/06 11:16:27;;;;;;;13.20;7.33;;;2.70;99.90;;;;;;5117818;28;20178;-78
2023/02/06 11:18:55;;;;;;;8.53;6.93;;;3.30;99.90;;;;;;5119998;28;20174;-80
2023/02/06 11:22:12;;;;;;;8.53;5.70;;;4.30;99.90;;;;;;5120072;28;20658;-80
2023/02/06 11:24:56;;;;;;;8.67;5.83;;;4.90;99.90;;;;;;5091159;28;20207;-79
2023/02/06 11:27:21;;;;;;;6.37;5.23;;;5.30;99.90;;;;;;5119805;28;20578;-79
2023/02/06 11:29:49;;;;;;;7.10;5.43;;;5.40;99.90;;;;;;5118307;28;20168;-79
2023/02/06 11:32:27;;;;;;;9.70;6.77;;;5.30;99.90;;;;;;5117105;28;20172;-80
2023/02/06 11:34:59;;;;;;;7.83;5.37;;;4.80;99.90;;;;;;5120100;28;20175;-79
2023/02/06 11:37:37;;;;;;;8.00;6.43;;;4.40;99.90;;;;;;5119755;28;20549;-79
2023/02/06 11:40:25;;;;;;;6.50;5.23;;;4.00;99.90;;;;;;5120158;28;20276;-79
2023/02/06 11:43:07;;;;;;;5.43;4.90;;;4.00;99.90;;;;;;5118330;28;20195;-79
2023/02/06 11:45:33;;;;;;;6.17;4.93;;;4.20;99.90;;;;;;5118293;28;20159;-79
2023/02/06 11:48:00;;;;;;;5.37;4.73;;;3.90;99.90;;;;;;5118353;28;20273;-79
2023/02/06 11:50:29;;;;;;;7.60;5.13;;;3.50;99.90;;;;;;5117611;28;20171;-79
2023/02/06 11:53:07;;;;;;;7.97;5.33;;;3.30;99.90;;;;;;5118551;28;20196;-79
2023/02/06 11:55:33;;;;;;;6.57;5.10;;;3.30;99.90;;;;;;5121323;28;20202;-79
2023/02/06 11:58:18;;;;;;;8.13;5.47;;;3.20;99.90;;;;;;5120022;28;20171;-79
2023/02/06 12:00:55;;;;;;;8.73;5.63;;;3.10;99.90;;;;;;5118274;28;20582;-79
2023/02/06 12:03:32;;;;;;;7.10;5.70;;;2.70;99.90;;;;;;5119800;28;20225;-79
2023/02/06 12:06:02;;;;;;;9.20;6.53;;;2.50;99.90;;;;;;5118023;28;20179;-78
2023/02/06 12:08:39;;;;;;;10.40;7.20;;;2.40;99.90;;;;;;5117437;28;20564;-79
2023/02/06 12:11:11;;;;;;;9.03;6.27;;;2.20;99.90;;;;;;5117954;28;20185;-79
2023/02/06 12:13:41;;;;;;;9.60;6.37;;;2.00;99.90;;;;;;5116597;28;20200;-79
2023/02/06 12:16:10;;;;;;;10.23;7.23;;;2.30;99.90;;;;;;5118409;27;20154;-79
2023/02/06 12:18:38;;;;;;;9.23;7.57;;;2.30;99.90;;;;;;5118213;28;20170;-79
2023/02/06 12:21:12;;;;;;;11.13;7.47;;;2.50;99.90;;;;;;5117810;28;20164;-79
2023/02/06 12:23:42;;;;;;;9.33;7.27;;;2.40;99.90;;;;;;5116127;28;20201;-79
2023/02/06 12:26:12;;;;;;;10.67;7.13;;;2.40;99.90;;;;;;5117647;28;20644;-81
2023/02/06 12:29:02;;;;;;;15.93;10.27;;;2.40;99.90;;;;;;5116840;28;20599;-79
2023/02/06 12:31:54;;;;;;;10.47;7.87;;;1.90;99.90;;;;;;5119969;28;20153;-79
2023/02/06 12:34:24;;;;;;;13.73;9.73;;;1.60;99.90;;;;;;5117496;28;20740;-80
2023/02/06 12:37:13;;;;;;;17.63;12.50;;;1.30;99.90;;;;;;5123223;28;20160;-79
2023/02/06 12:39:41;;;;;;;11.53;8.57;;;1.30;99.90;;;;;;5124461;28;20684;-78
2023/02/06 12:42:32;;;;;;;8.53;6.60;;;1.20;99.90;;;;;;5121953;28;20192;-79
2023/02/06 12:45:14;;;;;;;20.10;13.57;;;1.20;99.90;;;;;;5115577;28;20567;-79
2023/02/06 12:48:02;;;;;;;18.07;10.43;;;1.20;99.90;;;;;;5115439;28;20278;-79
2023/02/06 12:50:32;;;;;;;11.80;8.23;;;1.20;99.90;;;;;;5116293;28;20186;-78
2023/02/06 12:53:27;;;;;;;9.17;6.50;;;1.00;99.90;;;;;;5115947;28;20242;-78
2023/02/06 12:56:12;;;;;;;9.40;6.93;;;0.70;99.90;;;;;;5113635;28;20742;-78
2023/02/06 12:58:44;;;;;;;13.60;9.90;;;0.60;99.90;;;;;;5115799;28;20270;-78
2023/02/06 13:01:48;;;;;;;60.33;34.43;;;0.50;99.90;;;;;;5114283;28;20410;-78
2023/02/06 13:04:24;;;;;;;15.30;10.33;;;;;;;;;;5115269;28;20933;-78
2023/02/06 13:06:55;;;;;;;15.80;8.40;;;0.50;99.90;;;;;;5114730;28;20435;-78
2023/02/06 13:09:33;;;;;;;7.80;5.07;;;0.60;99.90;;;;;;5114946;28;20413;-78
2023/02/06 13:12:20;;;;;;;6.57;5.93;;;0.60;99.90;;;;;;5114798;28;20394;-78
2023/02/06 13:14:50;;;;;;;9.20;7.40;;;0.60;99.90;;;;;;5114748;28;20427;-78
2023/02/06 13:17:22;;;;;;;7.67;6.30;;;0.70;99.90;;;;;;5113642;28;20441;-78
2023/02/06 13:19:47;;;;;;;8.03;5.60;;;0.60;99.90;;;;;;5113729;28;20398;-78
2023/02/06 13:22:18;;;;;;;8.67;6.47;;;0.60;99.90;;;;;;5114601;28;20402;-78
2023/02/06 13:24:45;;;;;;;10.40;6.67;;;1.00;99.90;;;;;;5112762;28;20201;-78
2023/02/06 13:27:16;;;;;;;7.90;6.30;;;1.00;99.90;;;;;;5114086;28;20441;-78
2023/02/06 13:29:43;;;;;;;10.53;6.50;;;1.00;99.90;;;;;;5113019;28;20780;-78
2023/02/06 13:32:13;;;;;;;8.30;6.27;;;1.00;99.90;;;;;;5114608;28;20891;-78
2023/02/06 13:34:42;;;;;;;8.73;6.17;;;1.20;99.90;;;;;;5114708;28;20833;-78
2023/02/06 13:37:20;;;;;;;9.13;6.33;;;1.00;99.90;;;;;;5115521;28;20416;-78
2023/02/06 13:39:48;;;;;;;9.57;6.17;;;0.80;99.90;;;;;;5116505;28;20177;-78
2023/02/06 13:42:39;;;;;;;16.50;7.93;;;0.70;99.90;;;;;;5114390;28;20389;-78
2023/02/06 13:45:06;;;;;;;21.67;15.07;;;;;;;;;;5115429;28;20526;-79
2023/02/06 13:48:07;;;;;;;7.77;6.47;;;0.70;99.90;;;;;;5116139;28;20443;-79
2023/02/06 13:50:56;;;;;;;11.33;7.00;;;0.70;99.90;;;;;;5115681;28;20428;-78
2023/02/06 13:53:40;;;;;;;10.23;7.00;;;0.80;99.90;;;;;;5113462;28;20425;-78
2023/02/06 13:56:11;;;;;;;8.83;7.00;;;0.60;99.90;;;;;;5119577;28;20855;-78
2023/02/06 13:58:52;;;;;;;8.03;5.60;;;0.50;99.90;;;;;;5119133;28;20966;-78
2023/02/06 14:01:29;;;;;;;12.50;7.70;;;0.40;99.90;;;;;;5118920;28;20408;-78
2023/02/06 14:03:56;;;;;;;10.70;7.00;;;0.40;99.90;;;;;;5118469;28;20471;-78
2023/02/06 14:06:38;;;;;;;8.17;6.23;;;0.40;99.90;;;;;;5118709;28;20542;-78
2023/02/06 14:09:29;;;;;;;9.50;7.03;;;0.40;99.90;;;;;;5117916;28;20456;-78
2023/02/06 14:12:37;;;;;;;9.97;7.27;;;0.40;99.90;;;;;;5118155;28;20409;-78
2023/02/06 14:15:26;;;;;;;12.07;7.20;;;0.40;99.90;;;;;;5118424;28;20795;-78
2023/02/06 14:18:24;;;;;;;10.80;7.20;;;0.30;99.90;;;;;;5119852;28;20385;-79
2023/02/06 14:20:58;;;;;;;9.23;7.07;;;0.20;99.90;;;;;;5103049;28;20417;-79
2023/02/06 14:23:41;;;;;;;10.47;7.70;;;0.10;99.90;;;;;;5119382;28;21035;-78
2023/02/06 14:26:31;;;;;;;11.27;7.43;;;0.00;99.90;;;;;;5119850;28;20438;-78
2023/02/06 14:29:20;;;;;;;11.27;7.40;;;0.00;99.90;;;;;;5118098;28;20820;-78
2023/02/06 14:32:16;;;;;;;10.67;7.57;;;0.10;99.90;;;;;;5118013;28;20413;-78
2023/02/06 14:35:10;;;;;;;10.33;7.43;;;0.20;99.90;;;;;;5117766;28;20412;-79
2023/02/06 14:37:58;;;;;;;10.50;7.03;;;0.30;99.90;;;;;;5120026;28;20411;-78
2023/02/06 14:40:25;;;;;;;10.97;7.17;;;;;;;;;;5118380;28;20914;-78
2023/02/06 14:42:55;;;;;;;9.77;7.10;;;0.10;99.90;;;;;;5119196;28;20500;-79
2023/02/06 14:45:39;;;;;;;14.63;8.47;;;0.20;99.90;;;;;;5117774;28;20428;-79
2023/02/06 14:48:15;;;;;;;10.97;8.97;;;0.00;99.90;;;;;;5119605;28;20461;-78
2023/02/06 14:50:48;;;;;;;10.43;8.40;;;-0.20;99.90;;;;;;5121251;28;20385;-79
2023/02/06 14:53:24;;;;;;;12.80;8.27;;;-0.40;99.90;;;;;;5120205;28;20771;-78
